Latest Weather Observations for Busselton Airport

IDW60801

Issued at 9:05 pm WST Saturday 23 August 2014 (issued every 30 minutes, with the page automatically refreshed every 10 minutes)

About weather observations | Map of weather stations | Latest weather observations for WA | Other Formats
Station Details ID: 009603 Name: BUSSELTON AERO Lat: -33.69 Lon: 115.40 Height: 16.3 m
Data from the previous 72 hours. | See also: Recent months at Busselton Airport
Date/Time
WST
Temp
°C
App
Temp
°C
Dew
Point
Rel
Hum
%
Delta-T
°C
Wind Press
QNH
hPa
Press
MSL
hPa
Rain
since 9 am
mm
Dir
 
Spd
km/h
Gust
km/h
Spd
kts
Gust
kts
23/09:00pm 9.8 7.3 8.1 89 0.8 E 11 11 6 6 1021.5 1021.6 0.0
23/08:30pm 9.9 7.3 7.7 86 1.0 ESE 11 13 6 7 1021.5 1021.6 0.0
23/08:00pm 10.8 8.5 7.5 80 1.6 ESE 9 11 5 6 1021.4 1021.5 0.0
23/07:30pm 14.1 11.7 8.8 70 2.7 N 11 15 6 8 1021.3 1021.4 0.0
23/07:00pm 14.2 11.9 9.0 71 2.6 N 11 15 6 8 1021.2 1021.3 0.0
23/06:30pm 14.0 11.7 8.9 71 2.6 NNW 11 15 6 8 1021.1 1021.2 0.0
23/06:00pm 14.7 12.1 9.3 70 2.8 NNW 13 17 7 9 1021.1 1021.2 0.0
23/05:30pm 15.7 13.2 9.6 67 3.2 N 13 17 7 9 1020.7 1020.8 0.0
23/05:00pm 17.0 14.1 9.7 62 3.8 NNW 15 19 8 10 1020.6 1020.7 0.0
23/04:30pm 17.2 14.3 9.7 61 3.9 N 15 19 8 10 1020.6 1020.7 0.0
23/04:00pm 17.0 13.3 9.5 61 3.9 NNW 19 26 10 14 1020.7 1020.8 0.0
23/03:30pm 17.1 14.5 10.7 66 3.4 NNW 15 20 8 11 1020.8 1020.9 0.0
23/03:00pm 17.3 13.9 9.3 59 4.2 NNW 17 24 9 13 1021.0 1021.1 0.0
23/02:30pm 17.8 14.7 8.7 55 4.7 N 15 20 8 11 1021.3 1021.4 0.0
23/02:00pm 16.7 12.0 9.4 62 3.8 NNW 24 33 13 18 1021.7 1021.8 0.0
23/01:30pm 17.0 13.5 10.9 67 3.3 NW 20 28 11 15 1021.9 1022.0 0.0
23/01:00pm 15.3 11.3 10.3 72 2.6 WNW 22 33 12 18 1022.3 1022.4 0.0
23/12:30pm 16.1 13.0 10.4 69 3.0 NW 17 24 9 13 1022.2 1022.3 0.0
23/12:00pm 15.5 10.5 11.1 75 2.3 NW 28 43 15 23 1022.6 1022.7 0.0
23/11:30am 17.2 13.4 11.0 67 3.3 N 22 30 12 16 1022.4 1022.5 0.0
23/11:00am 17.0 13.0 11.7 71 2.9 N 24 32 13 17 1022.6 1022.7 0.0
23/10:30am 16.9 13.7 11.8 72 2.8 NNE 20 26 11 14 1022.7 1022.8 0.0
23/10:00am 16.0 12.7 10.8 71 2.8 NNE 19 24 10 13 1022.8 1022.9 0.0
23/09:30am 15.4 11.9 10.2 71 2.7 NNE 19 24 10 13 1022.9 1023.0 0.0
23/09:00am 13.5 11.1 10.0 79 1.8 ENE 13 15 7 8 1023.0 1023.1 0.2
23/08:30am 11.3 8.1 8.3 82 1.5 ENE 15 19 8 10 1023.1 1023.2 0.2
23/08:00am 11.1 7.8 8.2 82 1.4 ENE 15 19 8 10 1023.1 1023.2 0.2
23/07:30am 9.5 6.6 8.0 90 0.7 ENE 13 15 7 8 1022.9 1023.0 0.2
23/07:00am 7.2 3.8 5.9 91 0.6 ENE 13 15 7 8 1022.4 1022.5 0.2
23/06:30am 6.7 3.6 5.4 91 0.6 E 11 13 6 7 1022.3 1022.4 0.2
23/06:00am 6.7 4.0 5.4 91 0.6 SE 9 11 5 6 1022.4 1022.5 0.2
23/05:30am 6.5 3.7 5.1 91 0.6 S 9 9 5 5 1022.3 1022.4 0.2
23/05:00am 6.9 4.5 5.4 90 0.7 E 7 7 4 4 1022.4 1022.5 0.2
23/04:30am 6.6 4.4 5.1 90 0.7 E 6 7 3 4 1022.0 1022.1 0.2
23/04:00am 6.5 4.0 5.0 90 0.7 E 7 9 4 5 1021.7 1021.8 0.2
23/03:30am 7.2 4.5 5.7 90 0.7 E 9 11 5 6 1021.8 1021.9 0.2
23/03:00am 8.0 5.6 6.8 92 0.6 ENE 9 13 5 7 1022.1 1022.2 0.2
23/02:30am 7.9 6.0 6.9 93 0.5 ENE 6 9 3 5 1022.4 1022.5 0.2
23/02:00am 7.7 5.6 6.8 94 0.4 E 7 11 4 6 1022.5 1022.6 0.2
23/01:30am 6.3 3.5 5.3 93 0.4 E 9 13 5 7 1022.7 1022.8 0.2
23/01:00am 5.8 2.9 4.8 93 0.4 E 9 9 5 5 1022.7 1022.8 0.2
23/12:30am 6.2 3.4 5.0 92 0.5 E 9 9 5 5 1022.9 1023.0 0.2
23/12:00am 6.7 4.4 5.5 92 0.5 E 7 9 4 5 1023.0 1023.1 0.2
 
Date/Time
WST
Temp
°C
App
Temp
°C
Dew
Point
Rel
Hum
%
Delta-T
°C
Wind Press
QNH
hPa
Press
MSL
hPa
Rain
since 9 am
mm
Dir
 
Spd
km/h
Gust
km/h
Spd
kts
Gust
kts
22/11:30pm 6.8 4.5 5.6 92 0.5 E 7 9 4 5 1023.3 1023.4 0.2
22/11:00pm 6.5 4.1 5.3 92 0.5 E 7 9 4 5 1023.7 1023.7 0.2
22/10:30pm 6.2 3.9 4.7 90 0.6 E 6 9 3 5 1024.0 1024.0 0.2
22/10:00pm 6.9 4.5 5.2 89 0.7 ESE 7 9 4 5 1024.2 1024.2 0.2
22/09:30pm 7.5 5.4 5.7 88 0.8 ESE 6 7 3 4 1024.5 1024.5 0.2
22/09:00pm 8.0 5.9 5.8 86 1.0 SE 6 7 3 4 1024.3 1024.3 0.2
22/08:30pm 8.5 6.3 6.2 85 1.1 S 7 9 4 5 1024.1 1024.1 0.2
22/08:00pm 9.2 8.3 6.1 81 1.4 CALM 0 0 0 0 1024.0 1024.0 0.2
22/07:30pm 10.4 9.6 6.4 76 1.9 CALM 0 0 0 0 1023.8 1023.8 0.2
22/07:00pm 12.2 10.1 5.6 64 3.1 W 6 7 3 4 1023.3 1023.4 0.2
22/06:30pm 12.7 10.1 6.1 64 3.1 WNW 9 11 5 6 1022.9 1023.0 0.2
22/06:00pm 12.3 9.8 6.4 67 2.8 NW 9 11 5 6 1022.5 1022.6 0.2
22/05:30pm 13.6 10.8 7.0 64 3.2 NW 11 15 6 8 1022.3 1022.4 0.2
22/05:00pm 15.3 12.2 7.1 58 4.0 NW 13 17 7 9 1022.1 1022.2 0.2
22/04:30pm 16.3 13.3 7.5 56 4.4 NNW 13 17 7 9 1021.8 1021.9 0.2
22/04:00pm 16.6 12.2 6.4 51 5.0 NW 19 24 10 13 1021.7 1021.8 0.2
22/03:30pm 16.6 12.0 5.6 48 5.3 NNW 19 24 10 13 1021.7 1021.8 0.2
22/03:00pm 16.0 12.1 5.3 49 5.1 NNW 15 20 8 11 1021.5 1021.6 0.2
22/02:30pm 16.2 13.7 6.7 53 4.7 WNW 9 13 5 7 1021.3 1021.4 0.2
22/02:00pm 16.3 13.3 5.9 50 5.0 WNW 11 13 6 7 1021.1 1021.2 0.2
22/01:30pm 17.6 15.2 5.3 44 5.9 W 7 13 4 7 1021.0 1021.1 0.2
22/01:00pm 16.2 13.9 5.5 49 5.1 SW 7 13 4 7 1021.1 1021.2 0.2
22/12:30pm 16.5 13.3 6.9 53 4.7 SSW 13 19 7 10 1021.3 1021.4 0.2
22/12:00pm 16.6 12.9 7.8 56 4.4 SSW 17 22 9 12 1021.6 1021.7 0.2
22/11:30am 16.7 14.0 5.4 47 5.4 SSW 9 13 5 7 1021.5 1021.6 0.0
22/11:00am 16.2 14.3 9.2 63 3.6 W 9 17 5 9 1021.7 1021.8 0.0
22/10:30am 16.5 14.8 8.5 59 4.1 W 7 15 4 8 1021.8 1021.9 0.0
22/10:00am 15.1 13.0 8.1 63 3.5 SW 9 13 5 7 1021.6 1021.7 0.0
22/09:30am 14.8 13.7 8.3 65 3.3 SSE 4 7 2 4 1021.4 1021.5 0.0
22/09:00am 13.9 13.6 8.8 71 2.6 CALM 0 6 0 3 1021.1 1021.2 3.6
22/08:30am 12.6 12.7 10.3 86 1.2 CALM 0 0 0 0 1020.9 1021.0 3.6
22/08:00am 10.3 8.9 8.8 90 0.7 SE 6 9 3 5 1020.4 1020.5 3.6
22/07:30am 9.0 8.3 7.1 88 0.9 CALM 0 0 0 0 1019.5 1019.5 3.6
22/07:00am 10.0 8.1 7.6 85 1.1 W 7 9 4 5 1019.1 1019.1 3.6
22/06:30am 10.6 8.1 8.2 85 1.2 W 11 17 6 9 1018.7 1018.7 3.6
22/06:00am 9.4 7.8 8.2 92 0.6 WSW 6 17 3 9 1018.7 1018.7 3.6
22/05:30am 8.9 7.2 7.7 92 0.6 NNW 6 9 3 5 1018.1 1018.1 3.2
22/05:00am 7.5 5.2 5.8 89 0.8 E 7 9 4 5 1017.4 1017.4 3.2
22/04:30am 7.2 4.3 4.9 85 1.0 SE 9 9 5 5 1016.9 1016.9 3.2
22/04:00am 9.3 7.1 6.4 82 1.3 SW 7 9 4 5 1016.5 1016.5 3.2
22/03:30am 11.2 9.1 6.6 73 2.2 W 7 9 4 5 1016.0 1016.0 3.2
22/03:00am 10.8 8.4 7.1 78 1.8 W 9 11 5 6 1016.0 1016.0 3.2
22/02:30am 11.4 9.4 8.5 82 1.4 W 9 15 5 8 1015.6 1015.6 3.2
22/02:00am 11.8 9.6 9.4 85 1.2 W 11 19 6 10 1015.4 1015.4 3.2
22/01:30am 11.7 10.6 10.0 89 0.9 W 6 9 3 5 1015.1 1015.1 3.2
22/01:00am 12.1 9.3 10.0 87 1.1 WSW 15 22 8 12 1014.8 1014.8 3.2
22/12:40am 12.5 7.0 9.2 80 1.7 WSW 28 46 15 25 1015.0 1015.0 3.0
22/12:35am 13.4 7.4 8.5 72 2.4 WSW 30 46 16 25 1014.7 1014.7 2.6
22/12:30am 13.6 10.5 8.7 72 2.5 W 15 20 8 11 1014.1 1014.1 2.6
22/12:00am 13.2 8.4 8.7 74 2.3 WNW 24 33 13 18 1013.9 1013.9 2.6
 
Date/Time
WST
Temp
°C
App
Temp
°C
Dew
Point
Rel
Hum
%
Delta-T
°C
Wind Press
QNH
hPa
Press
MSL
hPa
Rain
since 9 am
mm
Dir
 
Spd
km/h
Gust
km/h
Spd
kts
Gust
kts
21/11:30pm 13.6 10.2 9.3 75 2.2 WNW 17 28 9 15 1013.8 1013.8 2.6
21/11:00pm 13.8 8.0 8.0 68 2.9 WNW 28 48 15 26 1013.8 1013.8 2.6
21/10:30pm 14.2 10.2 6.8 61 3.6 WNW 17 20 9 11 1013.4 1013.4 2.6
21/10:00pm 13.8 9.9 6.9 63 3.3 WNW 17 24 9 13 1013.4 1013.4 2.6
21/09:30pm 14.2 10.0 7.5 64 3.3 WNW 19 26 10 14 1013.3 1013.3 2.6
21/09:00pm 13.7 10.2 8.8 72 2.5 WNW 17 22 9 12 1013.1 1013.1 2.6
21/08:30pm 13.4 10.4 10.8 84 1.4 WNW 17 24 9 13 1012.9 1012.9 2.6
21/08:00pm 13.0 10.5 10.9 87 1.1 NW 15 26 8 14 1012.9 1012.9 2.6
21/07:30pm 15.0 11.4 10.0 72 2.6 NW 19 28 10 15 1012.5 1012.5 1.4
21/07:00pm 14.1 11.6 9.7 75 2.3 NW 13 19 7 10 1012.0 1012.0 1.4
21/06:30pm 14.1 12.3 9.6 74 2.3 NW 9 15 5 8 1011.7 1011.7 1.4
21/06:00pm 14.5 13.0 9.3 71 2.7 WNW 7 9 4 5 1011.4 1011.4 1.4
21/05:30pm 14.8 12.4 8.8 67 3.0 WNW 11 13 6 7 1011.3 1011.3 1.4
21/05:00pm 16.1 12.2 8.6 61 3.8 W 19 24 10 13 1010.9 1010.9 1.4
21/04:30pm 16.4 13.1 7.9 57 4.3 WNW 15 20 8 11 1010.4 1010.4 1.4
21/04:00pm 16.8 12.5 7.2 53 4.8 W 19 28 10 15 1010.5 1010.5 1.4
21/03:30pm 17.6 12.6 6.5 48 5.5 W 22 33 12 18 1010.3 1010.3 1.4
21/03:00pm 17.8 13.0 8.9 56 4.6 W 24 39 13 21 1009.9 1009.9 1.4
21/02:30pm 18.2 13.0 8.8 54 4.9 W 26 39 14 21 1009.7 1009.7 1.4
21/02:10pm 17.8 12.0 8.1 53 5.0 W 28 46 15 25 1009.6 1009.6 1.4
21/02:00pm 18.2 12.0 7.9 51 5.3 W 30 43 16 23 1009.5 1009.5 1.4
21/01:30pm 18.1 13.3 10.2 60 4.2 W 26 35 14 19 1009.4 1009.4 1.4
21/01:00pm 17.2 12.5 10.6 65 3.5 W 26 37 14 20 1009.3 1009.3 1.4
21/12:30pm 16.8 13.8 12.4 75 2.4 W 20 26 11 14 1009.6 1009.6 1.4
21/12:00pm 15.8 14.4 13.3 85 1.4 W 13 19 7 10 1009.7 1009.7 1.4
21/11:30am 14.6 10.4 13.5 93 0.6 W 28 41 15 22 1009.9 1009.9 1.4
21/11:29am 14.6 10.4 13.5 93 0.6 W 28 41 15 22 1010.0 1010.0 1.4
21/11:00am 15.6 14.1 14.3 92 0.7 W 15 20 8 11 1009.5 1009.5 0.8
21/10:30am 16.5 12.9 13.0 80 1.9 NW 24 37 13 20 1009.3 1009.3 0.0
21/10:00am 18.3 13.9 13.0 71 3.0 NNW 28 37 15 20 1008.8 1008.8 0.0
21/09:30am 17.7 14.6 11.7 68 3.3 NW 19 26 10 14 1008.8 1008.8 0.0
21/09:00am 17.1 13.6 11.0 67 3.3 NW 20 30 11 16 1008.8 1008.8 19.2
21/08:30am 16.4 12.8 10.7 69 3.0 WNW 20 30 11 16 1008.6 1008.6 19.2
21/08:00am 15.7 13.5 10.9 73 2.6 NW 13 19 7 10 1008.2 1008.2 19.2
21/07:30am 14.6 13.2 12.1 85 1.4 WNW 11 15 6 8 1007.9 1007.9 19.2
21/07:00am 14.5 12.9 12.9 90 0.9 WNW 13 19 7 10 1007.1 1007.1 19.2
21/06:30am 15.0 13.7 14.9 99 0.1 WNW 15 26 8 14 1006.4 1006.4 19.2
21/06:00am 15.4 13.9 15.3 99 0.1 W 17 26 9 14 1006.4 1006.4 19.2
21/05:30am 15.5 11.2 15.4 99 0.1 W 32 43 17 23 1006.0 1006.0 19.2
21/05:20am 15.7 12.2 15.6 99 0.1 W 28 43 15 23 1005.7 1005.7 19.2
21/05:00am 16.4 14.9 16.2 99 0.1 WNW 19 24 10 13 1005.2 1005.2 18.8
21/04:30am 17.0 13.1 16.9 99 0.1 N 33 48 18 26 1003.5 1003.5 16.0
21/04:00am 17.0 11.9 16.9 99 0.1 N 39 52 21 28 1004.0 1004.0 15.0
21/03:41am 16.3 12.3 16.1 99 0.1 N 32 54 17 29 1004.5 1004.5 14.4
21/03:30am 16.2 12.0 16.1 99 0.1 N 33 43 18 23 1004.6 1004.6 13.2
21/03:00am 16.5 12.4 16.4 99 0.1 N 33 48 18 26 1005.1 1005.1 12.2
21/02:30am 16.6 12.9 16.0 96 0.4 N 30 41 16 22 1005.8 1005.8 4.6
21/02:00am 16.9 12.7 15.8 93 0.6 N 32 46 17 25 1006.6 1006.6 4.2
21/01:30am 16.2 12.9 16.1 99 0.1 N 28 39 15 21 1007.2 1007.2 4.2
21/01:00am 16.2 12.3 15.4 95 0.5 N 30 41 16 22 1008.0 1008.0 2.6
21/12:36am 16.6 11.9 14.8 89 1.0 N 33 54 18 29 1008.1 1008.1 1.6
21/12:30am 16.7 12.1 14.7 88 1.2 N 32 46 17 25 1008.2 1008.2 1.4
21/12:00am 16.7 12.3 14.2 85 1.4 N 30 39 16 21 1008.5 1008.5 1.0
 
Date/Time
WST
Temp
°C
App
Temp
°C
Dew
Point
Rel
Hum
%
Delta-T
°C
Wind Press
QNH
hPa
Press
MSL
hPa
Rain
since 9 am
mm
Dir
 
Spd
km/h
Gust
km/h
Spd
kts
Gust
kts
20/11:30pm 16.7 13.6 14.4 86 1.3 N 24 32 13 17 1009.0 1009.0 0.8
20/11:00pm 16.1 12.7 14.7 91 0.8 N 26 35 14 19 1009.4 1009.4 0.6
20/10:30pm 15.6 12.6 13.8 89 1.0 N 22 30 12 16 1010.1 1010.1 0.6
20/10:00pm 16.6 12.9 12.8 78 2.1 N 24 33 13 18 1010.6 1010.6 0.4
20/09:30pm 16.4 12.6 12.4 77 2.2 N 24 33 13 18 1010.9 1010.9 0.4

Other Formats:

Comma delimited format used in spreadsheet applications
http://www.bom.gov.au/fwo/IDW60801/IDW60801.95611.axf

JavaScript Object Notation format (JSON) in row-major order
http://www.bom.gov.au/fwo/IDW60801/IDW60801.95611.json